Bookmark and Share
Track history (hours):
 

Neuburg

Last reported at 2014-Apr-24 01:33 UTC. Time now 2014-Apr-24 02:08 UTC.
Position N 40°11' E 001°25'.

Length 142 m; draft 6.6 m.

Type: Ship (hazmat cat C). MMSI: 212740000.

NotesDate/timePositionNaut miles runAvg speedWind from/ knotsBaromVisibWave heightAir tempDewpointWater temp
2014-Apr-24 01:33N 40°11' E 001°25'1313.4
2014-Apr-24 00:33N 40°23' E 001°33'1313.3
2014-Apr-23 23:33N 40°35' E 001°41'1413.9
2014-Apr-23 22:33N 40°47' E 001°51'1413.9
2014-Apr-23 21:34N 40°59' E 001°59'1413.5
2014-Apr-23 20:33N 41°11' E 002°08'10 7.1
2014-Apr-23 19:08N 41°21' E 002°10'0 0.0
2014-Apr-23 18:29N 41°21' E 002°10'0 0.0
2014-Apr-23 17:32N 41°21' E 002°10'0 0.0
2014-Apr-23 16:17N 41°21' E 002°10'0 0.0
2014-Apr-23 15:29N 41°21' E 002°10'0 0.0
2014-Apr-23 14:29N 41°21' E 002°10'0 0.0
2014-Apr-23 13:29N 41°21' E 002°10'0 0.0
2014-Apr-23 12:29N 41°21' E 002°10'0 0.0
2014-Apr-23 11:29N 41°21' E 002°10'0 0.0
2014-Apr-23 10:17N 41°21' E 002°10'0 0.0
2014-Apr-23 09:29N 41°21' E 002°10'0 0.0
2014-Apr-23 07:17N 41°21' E 002°10'0 0.0
2014-Apr-22 20:16N 41°21' E 002°10'0 0.0
2014-Apr-22 19:22N 41°21' E 002°10'0 0.0
2014-Apr-22 18:28N 41°21' E 002°10'0 0.0
2014-Apr-22 17:16N 41°21' E 002°10'0 0.0
2014-Apr-22 15:28N 41°21' E 002°10'0 0.0
2014-Apr-22 13:29N 41°21' E 002°10'0 0.0
2014-Apr-22 05:04N 41°21' E 002°10'0 0.0
2014-Apr-21 20:05N 41°21' E 002°10'0 0.0
2014-Apr-21 19:30N 41°21' E 002°10'2 0.4
2014-Apr-21 13:25N 41°18' E 002°10'1211.0
2014-Apr-21 12:21N 41°07' E 002°05'810.3
2014-Apr-21 11:33N 41°00' E 001°59'1111.1
2014-Apr-21 10:33N 40°51' E 001°52'10 9.8
2014-Apr-21 09:33N 40°42' E 001°45'1 0.8
2014-Apr-21 08:33N 40°42' E 001°46'1 0.9
2014-Apr-21 07:33N 40°42' E 001°47'1 0.8
2014-Apr-21 06:24N 40°42' E 001°48'7 8.9
2014-Apr-21 05:33N 40°35' E 001°44'1211.5
2014-Apr-21 04:33N 40°25' E 001°37'1211.7
2014-Apr-21 03:33N 40°15' E 001°30'1211.8
2014-Apr-21 02:33N 40°04' E 001°23'1212.0
2014-Apr-21 01:33N 39°54' E 001°15'1211.9
2014-Apr-21 00:33N 39°43' E 001°08'1712.1
2014-Apr-20 23:07N 39°28' E 000°58'9812.6
2014-Apr-20 15:23N 38°03' W 000°05'1012.4
2014-Apr-20 14:33N 37°55' W 000°13'1312.6
2014-Apr-20 13:33N 37°44' W 000°22'1212.3
2014-Apr-20 12:33N 37°34' W 000°30'23811.7
2014-Apr-19 16:14N 36°00' W 005°04'1116.9
2014-Apr-19 15:33N 35°59' W 005°18'  
2014-Apr-14 13:33N 35°54' W 005°48'3216.1
2014-Apr-14 11:34N 36°04' W 005°11'  

Dump ship's entire track history

sailing weather and tide predictions

Neuburg — 5BQJ2 — position and weather